Time;durP1;ratioP1;P1;durP2;ratioP2;P2;SDS_P1;SDS_P2;PMS_P1;PMS_P2;Temp;Humidity;BMP_temperature;BMP_pressure;BME280_temperature;BME280_humidity;BME280_pressure;Samples;Min_cycle;Max_cycle;Signal;HPM_P1;HPM_P2
2022/05/02 00:00:49;;;;;;;9.98;6.85;;;7.50;99.90;;;;;;5070969;28;20509;-63
2022/05/02 00:03:15;;;;;;;10.40;6.97;;;7.50;99.90;;;;;;5070492;28;20040;-61
2022/05/02 00:05:41;;;;;;;8.95;6.90;;;7.50;99.90;;;;;;5070585;28;20047;-63
2022/05/02 00:08:07;;;;;;;11.48;6.93;;;7.50;99.90;;;;;;5069125;28;20045;-62
2022/05/02 00:10:34;;;;;;;9.52;7.38;;;7.50;99.90;;;;;;5069889;28;20397;-61
2022/05/02 00:13:01;;;;;;;9.52;7.05;;;7.20;99.90;;;;;;5072700;28;20524;-66
2022/05/02 00:15:27;;;;;;;9.27;6.95;;;7.40;99.90;;;;;;5074572;28;20055;-61
2022/05/02 00:17:56;;;;;;;12.80;7.75;;;7.30;99.90;;;;;;5074343;28;20482;-62
2022/05/02 00:20:34;;;;;;;11.45;7.15;;;7.30;99.90;;;;;;5072867;28;20041;-63
2022/05/02 00:23:04;;;;;;;9.98;7.47;;;7.20;99.90;;;;;;5074620;28;20040;-63
2022/05/02 00:25:31;;;;;;;11.50;7.68;;;7.10;99.90;;;;;;5074246;28;20109;-62
2022/05/02 00:27:57;;;;;;;9.65;7.28;;;7.10;99.90;;;;;;5072879;28;20099;-62
2022/05/02 00:30:23;;;;;;;10.38;7.65;;;7.10;99.90;;;;;;5073640;28;20592;-62
2022/05/02 00:32:49;;;;;;;10.52;7.10;;;7.00;99.90;;;;;;5073082;28;20150;-63
2022/05/02 00:35:15;;;;;;;13.15;7.97;;;7.00;99.90;;;;;;5072139;28;20047;-54
2022/05/02 00:37:42;;;;;;;10.23;7.25;;;7.00;99.90;;;;;;5073253;28;20124;-55
2022/05/02 00:40:10;;;;;;;8.82;7.72;;;7.00;99.90;;;;;;5073035;28;20365;-52
2022/05/02 00:42:36;;;;;;;10.32;7.55;;;7.00;99.90;;;;;;5074554;28;20401;-53
2022/05/02 00:45:08;;;;;;;10.63;8.05;;;7.00;99.90;;;;;;5073881;28;20048;-56
2022/05/02 00:47:34;;;;;;;12.65;7.85;;;7.00;99.90;;;;;;5074090;28;20120;-55
2022/05/02 00:50:02;;;;;;;12.93;7.97;;;7.00;99.90;;;;;;5073714;28;20050;-55
2022/05/02 00:52:28;;;;;;;9.77;7.65;;;7.00;99.90;;;;;;5072113;28;20148;-55
2022/05/02 00:54:54;;;;;;;11.02;7.72;;;7.00;99.90;;;;;;5072866;28;20522;-56
2022/05/02 00:57:20;;;;;;;9.43;7.97;;;6.90;99.90;;;;;;5073606;28;20132;-56
2022/05/02 00:59:45;;;;;;;10.07;7.97;;;7.00;99.90;;;;;;5073426;28;20131;-55
2022/05/02 01:02:14;;;;;;;10.00;7.43;;;6.90;99.90;;;;;;5072484;28;20040;-54
2022/05/02 01:04:40;;;;;;;9.80;8.23;;;6.90;99.90;;;;;;5056535;28;20075;-53
2022/05/02 01:07:09;;;;;;;10.30;8.52;;;7.00;99.90;;;;;;5072562;28;20068;-59
2022/05/02 01:09:39;;;;;;;11.13;8.13;;;6.90;99.90;;;;;;5055739;28;20045;-55
2022/05/02 01:12:07;;;;;;;12.15;8.68;;;6.90;99.90;;;;;;5073646;28;20049;-56
2022/05/02 01:14:34;;;;;;;12.57;8.55;;;6.80;99.90;;;;;;5073255;28;20431;-54
2022/05/02 01:17:01;;;;;;;11.82;8.57;;;6.70;99.90;;;;;;5072554;28;20084;-56
2022/05/02 01:19:26;;;;;;;11.25;8.68;;;6.70;99.90;;;;;;5071821;28;20048;-54
2022/05/02 01:21:52;;;;;;;10.50;8.63;;;6.70;99.90;;;;;;5072276;28;20094;-54
2022/05/02 01:24:18;;;;;;;11.63;8.88;;;6.70;99.90;;;;;;5071813;28;20051;-57
2022/05/02 01:26:43;;;;;;;11.50;8.82;;;6.70;99.90;;;;;;5073648;28;20206;-52
2022/05/02 01:29:09;;;;;;;11.77;9.02;;;6.60;99.90;;;;;;5072904;28;20048;-54
2022/05/02 01:31:35;;;;;;;10.98;8.32;;;6.60;99.90;;;;;;5072030;28;20044;-53
2022/05/02 01:34:00;;;;;;;13.55;9.88;;;6.50;99.90;;;;;;5055403;28;20421;-53
2022/05/02 01:36:26;;;;;;;10.82;9.48;;;6.50;99.90;;;;;;5038554;28;20048;-54
2022/05/02 01:38:52;;;;;;;9.65;8.65;;;6.50;99.90;;;;;;5071618;28;20075;-57
2022/05/02 01:41:18;;;;;;;9.85;8.63;;;6.50;99.90;;;;;;5071810;28;20398;-55
2022/05/02 01:43:45;;;;;;;12.52;9.23;;;6.50;99.90;;;;;;5072051;28;20048;-54
2022/05/02 01:46:12;;;;;;;12.80;9.13;;;6.50;99.90;;;;;;5072890;28;20044;-60
2022/05/02 01:48:38;;;;;;;12.98;9.13;;;6.50;99.90;;;;;;5071522;28;20516;-55
2022/05/02 01:51:04;;;;;;;12.25;8.77;;;6.50;99.90;;;;;;5072880;28;20131;-53
2022/05/02 01:53:30;;;;;;;12.23;9.70;;;6.50;99.90;;;;;;5054030;28;20178;-55
2022/05/02 01:55:56;;;;;;;13.88;10.00;;;6.40;99.90;;;;;;5071852;28;20390;-55
2022/05/02 01:58:22;;;;;;;12.30;9.65;;;6.40;99.90;;;;;;5072645;28;20102;-53
2022/05/02 02:00:48;;;;;;;11.75;9.43;;;6.40;99.90;;;;;;5072694;28;20040;-54
2022/05/02 02:03:13;;;;;;;10.73;9.63;;;6.40;99.90;;;;;;5072147;28;20173;-57
2022/05/02 02:05:48;;;;;;;12.65;10.18;;;6.40;99.90;;;;;;5054924;28;20049;-56
2022/05/02 02:08:22;;;;;;;10.77;8.93;;;6.40;99.90;;;;;;5071307;28;20060;-59
2022/05/02 02:10:50;;;;;;;13.88;9.10;;;6.30;99.90;;;;;;5072519;28;20103;-53
2022/05/02 02:13:16;;;;;;;12.57;9.93;;;6.30;99.90;;;;;;5070968;28;20066;-59
2022/05/02 02:15:43;;;;;;;14.77;10.27;;;6.20;99.90;;;;;;5072426;28;20055;-55
2022/05/02 02:18:09;;;;;;;11.65;10.00;;;6.10;99.90;;;;;;5071359;28;20342;-54
2022/05/02 02:20:35;;;;;;;14.80;10.50;;;6.20;99.90;;;;;;5070843;28;20117;-52
2022/05/02 02:23:02;;;;;;;14.65;11.32;;;6.00;99.90;;;;;;5072342;28;20083;-57
2022/05/02 02:25:28;;;;;;;14.25;11.65;;;6.10;99.90;;;;;;5071979;28;20079;-55
2022/05/02 02:27:54;;;;;;;14.60;11.48;;;6.00;99.90;;;;;;5070837;28;20455;-54
2022/05/02 02:30:20;;;;;;;13.50;11.68;;;6.10;99.90;;;;;;5053950;28;20052;-58
2022/05/02 02:32:46;;;;;;;13.15;11.32;;;6.00;99.90;;;;;;5071033;28;20045;-53
2022/05/02 02:35:12;;;;;;;13.95;11.38;;;6.00;99.90;;;;;;5070649;28;20048;-54
2022/05/02 02:37:37;;;;;;;14.80;11.90;;;6.00;99.90;;;;;;5070165;28;20048;-54
2022/05/02 02:40:04;;;;;;;13.82;11.98;;;6.00;99.90;;;;;;5071982;28;20056;-55
2022/05/02 02:42:29;;;;;;;13.23;11.82;;;6.00;99.90;;;;;;5071568;28;20379;-56
2022/05/02 02:44:55;;;;;;;14.38;11.70;;;6.00;99.90;;;;;;5037538;28;20102;-56
2022/05/02 02:47:21;;;;;;;16.08;11.57;;;6.00;99.90;;;;;;5070352;28;20055;-55
2022/05/02 02:49:46;;;;;;;14.13;11.32;;;6.00;99.90;;;;;;5054280;28;20346;-55
2022/05/02 02:52:12;;;;;;;17.55;12.05;;;6.00;99.90;;;;;;5071535;28;20057;-56
2022/05/02 02:54:38;;;;;;;14.70;12.00;;;6.00;99.90;;;;;;5070264;28;20045;-55
2022/05/02 02:57:04;;;;;;;14.70;11.55;;;6.20;99.90;;;;;;5071722;28;20056;-54
2022/05/02 02:59:29;;;;;;;13.30;10.45;;;6.00;99.90;;;;;;5053435;28;20047;-55
2022/05/02 03:01:56;;;;;;;14.65;11.25;;;5.90;99.90;;;;;;5070679;28;20132;-56
2022/05/02 03:07:08;;;;;;;14.48;11.02;;;5.80;99.90;;;;;;5071302;28;20516;-55
2022/05/02 03:09:34;;;;;;;12.98;10.38;;;5.80;99.90;;;;;;5070104;28;20110;-54
2022/05/02 03:12:00;;;;;;;16.65;10.30;;;5.70;99.90;;;;;;5054008;28;20041;-55
2022/05/02 03:14:25;;;;;;;13.52;10.95;;;5.70;99.90;;;;;;5071187;28;20040;-55
2022/05/02 03:16:51;;;;;;;14.30;10.88;;;5.70;99.90;;;;;;5071508;28;20056;-55
2022/05/02 03:19:17;;;;;;;13.57;10.68;;;5.70;99.90;;;;;;5071482;28;20040;-54
2022/05/02 03:21:43;;;;;;;13.15;10.35;;;5.60;99.90;;;;;;5070163;28;20592;-54
2022/05/02 03:24:08;;;;;;;13.15;11.00;;;5.60;99.90;;;;;;5070227;28;20055;-55
2022/05/02 03:26:34;;;;;;;14.70;10.52;;;5.60;99.90;;;;;;5053490;28;20122;-55
2022/05/02 03:29:00;;;;;;;12.82;10.82;;;5.60;99.90;;;;;;5071486;28;20040;-57
2022/05/02 03:31:25;;;;;;;15.80;11.15;;;5.60;99.90;;;;;;5069991;28;20083;-55
2022/05/02 03:33:51;;;;;;;13.32;10.23;;;5.60;99.90;;;;;;5053515;28;20041;-57
2022/05/02 03:36:17;;;;;;;13.07;10.80;;;5.70;99.90;;;;;;5070504;28;20048;-55
2022/05/02 03:38:43;;;;;;;12.52;10.40;;;5.50;99.90;;;;;;5069862;28;20500;-55
2022/05/02 03:41:09;;;;;;;12.82;10.90;;;5.50;99.90;;;;;;5071231;28;20131;-54
2022/05/02 03:43:35;;;;;;;11.63;10.38;;;5.50;99.90;;;;;;5069676;28;20048;-54
2022/05/02 03:46:01;;;;;;;15.20;11.40;;;5.40;99.90;;;;;;5071270;28;20359;-55
2022/05/02 03:48:27;;;;;;;17.70;12.13;;;5.40;99.90;;;;;;5073113;28;20045;-57
2022/05/02 03:50:53;;;;;;;13.85;11.35;;;5.40;99.90;;;;;;5074024;28;20552;-55
2022/05/02 03:53:19;;;;;;;17.17;12.35;;;5.40;99.90;;;;;;5073536;28;20060;-53
2022/05/02 03:55:45;;;;;;;12.48;11.18;;;5.30;99.90;;;;;;5057059;28;20075;-55
2022/05/02 03:58:12;;;;;;;13.38;10.68;;;5.40;99.90;;;;;;5074970;28;20044;-59
2022/05/02 04:00:38;;;;;;;13.82;11.65;;;5.30;99.90;;;;;;5056586;28;20051;-52
2022/05/02 04:03:04;;;;;;;15.43;10.70;;;5.30;99.90;;;;;;5075252;28;20053;-54
2022/05/02 04:05:29;;;;;;;12.13;10.23;;;5.30;99.90;;;;;;5074782;28;20040;-53
2022/05/02 04:07:55;;;;;;;14.77;11.30;;;5.30;99.90;;;;;;5057415;28;20099;-53
2022/05/02 04:10:21;;;;;;;13.90;10.80;;;5.30;99.90;;;;;;5073800;28;20036;-57
2022/05/02 04:12:47;;;;;;;15.95;11.45;;;5.30;99.90;;;;;;5073471;28;20040;-57
2022/05/02 04:15:13;;;;;;;14.15;10.65;;;5.30;99.90;;;;;;5073970;28;20059;-56
2022/05/02 04:17:39;;;;;;;13.13;11.02;;;5.30;99.90;;;;;;5073536;28;20040;-55
2022/05/02 04:20:06;;;;;;;13.38;11.52;;;5.30;99.90;;;;;;5074769;28;20102;-55
2022/05/02 04:22:32;;;;;;;14.40;11.50;;;5.30;99.90;;;;;;5073402;28;20071;-56
2022/05/02 04:24:58;;;;;;;13.07;11.25;;;5.30;99.90;;;;;;5074549;28;20036;-54
2022/05/02 04:27:24;;;;;;;13.32;10.23;;;5.30;99.90;;;;;;5073704;28;20046;-53
2022/05/02 04:29:50;;;;;;;11.85;8.75;;;5.20;99.90;;;;;;5073124;28;20083;-53
2022/05/02 04:32:15;;;;;;;8.60;6.30;;;5.10;99.90;;;;;;5074570;28;20127;-54
2022/05/02 04:34:41;;;;;;;5.55;4.32;;;5.00;99.90;;;;;;5056178;28;20406;-54
2022/05/02 04:37:10;;;;;;;4.70;4.00;;;4.90;99.90;;;;;;5074810;28;20474;-54
2022/05/02 04:39:36;;;;;;;6.82;4.90;;;4.80;99.90;;;;;;5074030;28;20093;-50
2022/05/02 04:42:02;;;;;;;7.15;5.95;;;5.10;99.90;;;;;;5073041;28;20106;-52
2022/05/02 04:44:28;;;;;;;7.95;6.35;;;4.60;99.90;;;;;;5073361;28;20044;-57
2022/05/02 04:46:53;;;;;;;7.25;6.22;;;4.60;99.90;;;;;;5072946;28;20063;-55
2022/05/02 04:49:19;;;;;;;6.78;5.90;;;4.70;99.90;;;;;;5073278;28;20170;-55
2022/05/02 04:51:45;;;;;;;7.40;5.85;;;4.70;99.90;;;;;;5071518;28;20061;-53
2022/05/02 04:54:11;;;;;;;7.60;6.28;;;4.80;99.90;;;;;;5073807;28;20044;-50
2022/05/02 04:56:37;;;;;;;7.65;6.45;;;4.70;99.90;;;;;;5072604;28;20049;-50
2022/05/02 04:59:03;;;;;;;8.45;6.70;;;4.80;99.90;;;;;;5072603;28;20425;-51
2022/05/02 05:01:28;;;;;;;8.50;6.75;;;4.80;99.90;;;;;;5073033;28;20051;-53
2022/05/02 05:03:54;;;;;;;9.30;6.78;;;5.00;99.90;;;;;;5072329;28;20049;-50
2022/05/02 05:06:20;;;;;;;11.27;7.72;;;5.00;99.90;;;;;;5072657;28;20088;-50
2022/05/02 05:08:46;;;;;;;8.43;6.18;;;5.10;99.90;;;;;;5072644;28;20083;-55
2022/05/02 05:11:50;;;;;;;9.05;6.15;;;5.50;99.90;;;;;;5055965;28;20052;-54
2022/05/02 05:17:32;;;;;;;7.60;5.35;;;6.80;99.90;;;;;;5073727;28;20066;-54
2022/05/02 05:20:27;;;;;;;7.93;5.75;;;7.60;99.90;;;;;;5073721;28;20052;-55
2022/05/02 05:23:06;;;;;;;9.90;6.18;;;8.40;99.90;;;;;;5073293;28;20371;-58
2022/05/02 05:25:35;;;;;;;7.95;5.40;;;8.90;99.90;;;;;;5072508;28;20048;-55
2022/05/02 05:28:23;;;;;;;8.85;5.93;;;9.50;99.90;;;;;;5071794;28;20363;-56
2022/05/02 05:31:02;;;;;;;7.47;5.90;;;10.20;99.90;;;;;;5071650;28;20052;-58
2022/05/02 05:34:06;;;;;;;10.73;6.43;;;10.80;99.90;;;;;;5073256;28;20424;-58
2022/05/02 05:36:58;;;;;;;9.25;6.10;;;11.40;99.90;;;;;;5064481;28;20052;-55
2022/05/02 05:39:50;;;;;;;8.00;5.95;;;12.10;99.90;;;;;;5073394;28;20048;-56
2022/05/02 05:42:47;;;;;;;7.72;6.05;;;12.70;99.90;;;;;;5073399;28;20044;-57
2022/05/02 05:45:42;;;;;;;8.80;6.15;;;13.30;99.90;;;;;;5071477;28;20445;-56
2022/05/02 05:48:31;;;;;;;9.80;6.40;;;14.10;99.90;;;;;;5073208;28;20044;-58
2022/05/02 05:51:33;;;;;;;10.50;5.90;;;14.80;99.90;;;;;;5072376;28;20106;-57
2022/05/02 05:54:35;;;;;;;7.35;5.80;;;15.50;99.90;;;;;;5054975;28;20053;-55
2022/05/02 05:57:32;;;;;;;8.70;5.50;;;16.10;99.80;;;;;;5071560;28;20040;-57
2022/05/02 06:00:12;;;;;;;6.57;5.32;;;16.70;98.70;;;;;;5071283;28;20044;-57
2022/05/02 06:02:51;;;;;;;6.07;4.70;;;17.30;99.50;;;;;;5071717;28;20119;-59
2022/05/02 06:05:18;;;;;;;6.40;5.00;;;17.60;98.50;;;;;;5071812;28;20052;-59
2022/05/02 06:07:48;;;;;;;8.10;5.35;;;17.70;97.40;;;;;;5071458;28;20441;-60
2022/05/02 06:10:16;;;;;;;7.40;5.22;;;18.10;97.40;;;;;;5070974;28;20105;-58
2022/05/02 06:12:43;;;;;;;8.10;5.53;;;18.10;96.50;;;;;;5071445;28;20064;-58
2022/05/02 06:20:45;;;;;;;9.18;5.47;;;18.80;94.70;;;;;;5070296;28;20140;-58
2022/05/02 06:23:16;;;;;;;8.48;5.40;;;19.30;96.70;;;;;;5071378;28;20397;-58
2022/05/02 06:25:48;;;;;;;8.40;6.18;;;19.50;95.40;;;;;;5071809;28;20044;-59
2022/05/02 06:28:15;;;;;;;7.68;5.80;;;19.80;92.80;;;;;;5070331;28;20084;-59
2022/05/02 06:30:43;;;;;;;8.35;6.10;;;19.80;94.10;;;;;;5071174;28;20379;-59
2022/05/02 06:33:14;;;;;;;7.25;5.35;;;20.00;92.10;;;;;;5071267;28;20095;-58
2022/05/02 06:36:07;;;;;;;7.22;5.43;;;20.20;92.30;;;;;;5071024;28;20147;-59
2022/05/02 06:38:54;;;;;;;7.07;5.95;;;20.30;92.20;;;;;;5053615;28;20045;-58
2022/05/02 06:41:36;;;;;;;9.30;7.13;;;20.50;91.10;;;;;;5071231;28;20067;-58
2022/05/02 06:44:23;;;;;;;13.40;10.48;;;20.80;91.50;;;;;;5071058;28;20390;-59
2022/05/02 06:47:04;;;;;;;11.18;10.07;;;21.00;90.20;;;;;;5069729;28;20052;-61
2022/05/02 06:49:33;;;;;;;11.55;10.35;;;21.30;89.50;;;;;;5071149;28;20097;-59
2022/05/02 06:52:10;;;;;;;14.90;11.32;;;21.30;87.40;;;;;;5069095;28;20056;-59
2022/05/02 06:55:01;;;;;;;12.25;11.05;;;21.60;88.20;;;;;;5071178;28;20117;-59
2022/05/02 06:58:00;;;;;;;15.30;13.80;;;21.60;86.80;;;;;;5070671;28;20102;-56
2022/05/02 07:00:45;;;;;;;16.58;14.93;;;21.50;86.20;;;;;;5071128;28;20118;-61
2022/05/02 07:03:35;;;;;;;17.13;15.48;;;21.60;88.50;;;;;;5052413;28;20637;-59
2022/05/02 07:06:05;;;;;;;13.55;12.05;;;22.00;84.40;;;;;;5058225;28;20102;-58
2022/05/02 07:08:37;;;;;;;12.00;10.82;;;22.30;84.30;;;;;;5069387;28;20048;-59
2022/05/02 07:11:06;;;;;;;9.50;7.97;;;22.60;82.60;;;;;;5069675;28;20139;-59
2022/05/02 07:14:02;;;;;;;6.22;4.50;;;22.50;82.90;;;;;;5069557;28;20051;-59
2022/05/02 07:16:31;;;;;;;6.18;4.07;;;23.10;79.50;;;;;;5070704;28;20044;-59
2022/05/02 07:19:18;;;;;;;5.50;4.10;;;23.10;79.30;;;;;;5070013;28;20136;-58
2022/05/02 07:22:22;;;;;;;5.90;3.70;;;23.60;79.20;;;;;;5069319;28;20059;-58
2022/05/02 07:25:11;;;;;;;4.37;3.63;;;23.50;77.00;;;;;;5038841;28;20060;-59
2022/05/02 07:28:18;;;;;;;6.47;3.50;;;23.00;76.00;;;;;;5070501;28;20079;-59
2022/05/02 07:30:47;;;;;;;5.35;3.13;;;22.70;74.50;;;;;;5070718;28;20087;-60
2022/05/02 07:33:13;;;;;;;5.80;3.20;;;22.50;75.90;;;;;;5070172;28;20045;-58
2022/05/02 07:35:42;;;;;;;4.35;2.95;;;22.40;73.50;;;;;;5070760;28;20132;-59
2022/05/02 07:38:08;;;;;;;5.70;3.72;;;22.50;77.20;;;;;;5070084;28;20052;-59
2022/05/02 07:40:35;;;;;;;5.05;3.67;;;22.40;77.10;;;;;;5070594;28;20053;-58
2022/05/02 07:43:02;;;;;;;5.82;3.35;;;22.80;76.60;;;;;;5069415;28;20059;-59
2022/05/02 07:45:30;;;;;;;4.15;3.10;;;22.90;74.80;;;;;;5069024;28;20048;-59
2022/05/02 07:48:03;;;;;;;5.40;2.70;;;23.20;75.80;;;;;;5069311;28;20123;-59
2022/05/02 07:50:30;;;;;;;4.43;3.08;;;23.30;74.10;;;;;;5069656;28;20544;-59
2022/05/02 07:52:58;;;;;;;5.25;3.28;;;23.00;71.40;;;;;;5067755;28;20059;-60
2022/05/02 07:55:24;;;;;;;5.63;3.55;;;23.30;72.10;;;;;;5069759;28;20052;-59
2022/05/02 07:57:51;;;;;;;5.05;3.53;;;23.70;74.00;;;;;;5069722;28;20405;-59
2022/05/02 08:00:17;;;;;;;5.32;3.40;;;24.10;69.80;;;;;;5068315;28;20043;-60
2022/05/02 08:02:43;;;;;;;4.47;3.28;;;24.70;69.20;;;;;;5068955;28;20123;-58
2022/05/02 08:05:10;;;;;;;7.45;3.83;;;25.20;70.70;;;;;;5069882;28;20044;-58
2022/05/02 08:07:41;;;;;;;6.07;3.70;;;25.70;66.90;;;;;;5068851;28;20063;-59
2022/05/02 08:10:37;;;;;;;6.97;4.15;;;25.40;67.30;;;;;;5069334;28;20056;-58
2022/05/02 08:13:11;;;;;;;6.13;4.20;;;25.70;66.50;;;;;;5068600;28;20044;-59
2022/05/02 08:15:43;;;;;;;5.38;3.88;;;25.60;69.10;;;;;;5069565;28;20056;-58
2022/05/02 08:18:37;;;;;;;5.65;3.65;;;25.60;66.50;;;;;;5067855;28;20053;-59
2022/05/02 08:21:09;;;;;;;6.53;4.22;;;25.70;65.50;;;;;;5069805;28;20044;-56
2022/05/02 08:30:02;;;;;;;6.15;3.65;;;25.60;65.10;;;;;;5068637;28;20120;-58
2022/05/02 08:32:54;;;;;;;4.88;3.80;;;25.80;65.10;;;;;;5070139;28;20460;-58
2022/05/02 08:35:45;;;;;;;6.43;3.92;;;26.10;64.70;;;;;;5073477;28;20048;-58
2022/05/02 08:38:41;;;;;;;8.90;4.10;;;25.50;64.70;;;;;;5065105;28;20053;-57
2022/05/02 08:41:24;;;;;;;5.40;3.83;;;25.20;65.40;;;;;;5072884;28;20126;-57
2022/05/02 08:44:21;;;;;;;5.78;4.18;;;25.50;65.60;;;;;;5073394;28;20078;-58
2022/05/02 08:47:01;;;;;;;6.22;4.07;;;25.60;64.50;;;;;;5073652;28;20398;-58
2022/05/02 08:49:51;;;;;;;7.97;4.35;;;25.70;64.30;;;;;;5072911;28;20045;-58
2022/05/02 08:52:36;;;;;;;6.63;3.85;;;25.50;65.30;;;;;;5073860;28;20064;-57
2022/05/02 08:55:33;;;;;;;6.60;4.50;;;25.50;65.30;;;;;;5073685;28;20087;-58
2022/05/02 08:58:17;;;;;;;5.35;4.20;;;25.70;63.40;;;;;;5072698;28;20044;-58
2022/05/02 09:00:49;;;;;;;6.63;4.18;;;26.20;63.80;;;;;;5074012;28;20050;-58
2022/05/02 09:03:36;;;;;;;6.15;4.10;;;26.50;63.90;;;;;;5073728;28;20398;-58
2022/05/02 09:06:23;;;;;;;5.50;4.32;;;26.40;62.80;;;;;;5074121;28;20163;-58
2022/05/02 09:09:13;;;;;;;6.28;4.53;;;26.40;62.60;;;;;;5073887;28;20055;-58
2022/05/02 09:12:10;;;;;;;6.35;4.43;;;26.40;62.20;;;;;;5072757;28;20368;-58
2022/05/02 09:15:03;;;;;;;8.55;4.55;;;26.20;62.10;;;;;;5073466;28;20482;-59
2022/05/02 09:17:48;;;;;;;8.10;4.53;;;26.40;63.00;;;;;;5073638;28;20079;-59
2022/05/02 09:20:29;;;;;;;6.10;4.20;;;26.10;62.50;;;;;;5073406;28;20044;-59
2022/05/02 09:23:00;;;;;;;5.93;4.40;;;26.00;62.00;;;;;;5072418;28;20540;-59
2022/05/02 09:25:29;;;;;;;7.53;4.60;;;25.50;61.90;;;;;;5072005;28;20067;-58
2022/05/02 09:27:55;;;;;;;6.85;3.92;;;25.30;62.10;;;;;;5073644;28;20056;-58
2022/05/02 09:30:39;;;;;;;5.75;4.32;;;25.10;63.30;;;;;;5073275;28;20040;-58
2022/05/02 09:33:34;;;;;;;5.25;3.97;;;25.50;61.20;;;;;;5073257;28;20056;-58
2022/05/02 09:36:03;;;;;;;6.30;4.35;;;25.00;61.60;;;;;;5073096;28;20052;-59
2022/05/02 09:38:42;;;;;;;6.13;4.70;;;24.70;61.60;;;;;;5072968;28;20045;-59
2022/05/02 09:41:16;;;;;;;5.45;4.00;;;24.70;61.60;;;;;;5071827;28;20140;-57
2022/05/02 09:50:04;;;;;;;8.77;4.67;;;23.30;62.60;;;;;;5073194;28;20147;-57
2022/05/02 09:52:51;;;;;;;6.80;4.43;;;23.10;62.80;;;;;;5072827;28;20057;-60
2022/05/02 09:58:37;;;;;;;7.63;4.72;;;22.80;64.10;;;;;;5073026;28;20079;-58
2022/05/02 10:01:20;;;;;;;7.57;4.97;;;22.00;65.00;;;;;;5069768;28;20053;-58
2022/05/02 10:04:18;;;;;;;6.57;5.40;;;21.40;65.80;;;;;;5072970;28;20051;-58
2022/05/02 10:06:52;;;;;;;7.18;5.00;;;20.70;66.10;;;;;;5071903;28;20052;-58
2022/05/02 10:09:36;;;;;;;6.75;4.35;;;20.50;66.90;;;;;;5072464;28;20073;-58
2022/05/02 10:12:12;;;;;;;8.07;4.90;;;20.50;67.70;;;;;;5072785;28;20048;-58
2022/05/02 10:15:03;;;;;;;7.18;4.63;;;20.70;66.50;;;;;;5070973;28;20041;-57
2022/05/02 10:17:58;;;;;;;7.53;4.43;;;20.50;67.30;;;;;;5071180;28;20056;-58
2022/05/02 10:20:55;;;;;;;5.50;4.60;;;20.80;67.80;;;;;;5072219;28;20080;-57
2022/05/02 10:23:23;;;;;;;6.28;4.43;;;20.70;66.10;;;;;;5072116;28;20090;-57
2022/05/02 10:26:08;;;;;;;6.35;4.93;;;20.40;66.60;;;;;;5072283;28;20041;-58
2022/05/02 10:28:49;;;;;;;5.88;4.50;;;20.40;66.50;;;;;;5072104;28;20084;-58
2022/05/02 10:31:28;;;;;;;6.05;4.35;;;19.90;67.70;;;;;;5071188;28;20051;-58
2022/05/02 10:33:54;;;;;;;6.88;4.45;;;19.80;67.30;;;;;;5071100;28;20513;-59
2022/05/02 10:36:27;;;;;;;5.82;4.43;;;19.60;68.80;;;;;;5071769;28;20047;-58
2022/05/02 10:39:01;;;;;;;6.38;4.25;;;19.50;68.50;;;;;;5072467;28;20056;-60
2022/05/02 10:41:28;;;;;;;6.78;4.03;;;19.50;68.50;;;;;;5071290;28;20050;-60
2022/05/02 10:44:05;;;;;;;7.05;4.07;;;19.40;68.40;;;;;;5071171;28;20401;-58
2022/05/02 10:46:32;;;;;;;5.20;3.72;;;19.40;67.30;;;;;;5053821;28;20040;-59
2022/05/02 10:49:08;;;;;;;6.22;4.15;;;19.40;67.60;;;;;;5071930;28;20084;-57
2022/05/02 10:51:54;;;;;;;5.28;3.88;;;19.40;67.10;;;;;;5070120;28;20055;-59
2022/05/02 10:54:30;;;;;;;5.70;3.78;;;19.40;66.50;;;;;;5071361;28;20047;-59
2022/05/02 10:57:09;;;;;;;5.55;3.97;;;19.60;64.70;;;;;;5071603;28;20444;-59
2022/05/02 10:59:40;;;;;;;6.25;3.97;;;19.90;64.70;;;;;;5070939;28;20079;-58
2022/05/02 11:02:30;;;;;;;4.82;3.95;;;20.20;65.40;;;;;;5070394;28;20117;-58
2022/05/02 11:04:58;;;;;;;5.50;4.15;;;20.40;66.70;;;;;;5071571;28;20078;-58
2022/05/02 11:07:38;;;;;;;5.68;4.20;;;20.60;66.80;;;;;;5070871;28;20052;-58
2022/05/02 11:10:10;;;;;;;7.65;4.57;;;20.70;67.30;;;;;;5071438;28;20048;-58
2022/05/02 11:12:45;;;;;;;6.60;4.45;;;20.90;67.20;;;;;;5070167;28;20055;-58
2022/05/02 11:15:16;;;;;;;6.22;4.47;;;20.50;67.10;;;;;;5071533;28;20041;-58
2022/05/02 11:17:54;;;;;;;8.40;4.97;;;20.20;66.90;;;;;;5071177;28;20265;-58
2022/05/02 11:20:41;;;;;;;6.15;4.80;;;20.10;67.60;;;;;;5071558;28;20374;-58
2022/05/02 11:23:15;;;;;;;6.85;4.68;;;20.10;67.70;;;;;;5070535;28;20409;-58
2022/05/02 11:25:53;;;;;;;6.05;3.92;;;20.10;67.20;;;;;;5071200;28;20059;-58
2022/05/02 11:28:21;;;;;;;5.75;3.85;;;20.30;66.50;;;;;;5070281;28;20131;-58
2022/05/02 11:30:55;;;;;;;5.32;4.22;;;20.20;66.60;;;;;;5070771;28;20131;-59
2022/05/02 11:33:50;;;;;;;5.50;3.80;;;19.90;66.70;;;;;;5071651;28;20477;-60
2022/05/02 11:36:23;;;;;;;5.70;3.65;;;19.90;67.50;;;;;;5070369;28;20079;-60
2022/05/02 11:39:07;;;;;;;6.90;3.40;;;19.80;66.50;;;;;;5069775;28;20060;-59
2022/05/02 11:41:41;;;;;;;11.70;4.10;;;19.70;66.30;;;;;;5070115;28;20776;-60
2022/05/02 11:44:13;;;;;;;5.85;4.05;;;19.60;66.10;;;;;;5070223;28;20040;-60
2022/05/02 11:47:06;;;;;;;5.38;3.78;;;19.60;66.00;;;;;;5069838;28;20047;-60
2022/05/02 11:49:51;;;;;;;5.07;4.00;;;19.70;66.50;;;;;;5063308;28;20134;-61
2022/05/02 11:52:31;;;;;;;6.53;3.95;;;19.50;67.90;;;;;;5071112;28;20055;-60
2022/05/02 11:54:58;;;;;;;5.32;3.90;;;19.60;68.90;;;;;;5070832;28;20486;-60
2022/05/02 11:57:49;;;;;;;8.18;4.88;;;19.60;71.20;;;;;;5071230;28;20060;-62
2022/05/02 12:00:16;;;;;;;6.72;4.72;;;19.60;72.50;;;;;;5071144;28;20049;-63
2022/05/02 12:02:59;;;;;;;7.47;4.90;;;19.30;71.60;;;;;;5070879;28;20131;-59
2022/05/02 12:05:48;;;;;;;6.28;4.07;;;18.90;71.90;;;;;;5070837;28;20133;-58
2022/05/02 12:08:38;;;;;;;7.40;4.45;;;18.90;73.10;;;;;;5071670;28;20052;-58
2022/05/02 12:11:07;;;;;;;5.40;4.57;;;19.00;72.60;;;;;;5075061;28;20120;-59
2022/05/02 12:13:44;;;;;;;6.75;4.60;;;19.20;71.90;;;;;;5074299;28;20037;-58
2022/05/02 12:16:15;;;;;;;7.18;4.72;;;19.00;72.00;;;;;;5073609;28;20045;-60
2022/05/02 12:18:46;;;;;;;10.90;5.13;;;18.80;73.70;;;;;;5074568;28;20245;-61
2022/05/02 12:21:41;;;;;;;6.65;5.00;;;18.70;75.70;;;;;;5075012;28;20048;-60
2022/05/02 12:24:09;;;;;;;6.40;4.50;;;18.70;76.00;;;;;;5074806;28;20045;-61
2022/05/02 12:26:44;;;;;;;7.00;5.30;;;18.70;76.30;;;;;;5074388;28;20049;-60
2022/05/02 12:29:19;;;;;;;6.60;4.80;;;18.70;76.00;;;;;;5074209;28;20127;-60
2022/05/02 12:31:55;;;;;;;8.15;5.43;;;18.80;75.00;;;;;;5074349;28;20491;-61
2022/05/02 12:34:21;;;;;;;7.35;5.00;;;19.00;75.00;;;;;;5074603;28;20072;-60
2022/05/02 12:36:50;;;;;;;7.82;4.63;;;19.20;75.50;;;;;;5074115;28;20121;-60
2022/05/02 12:39:27;;;;;;;5.57;4.60;;;19.20;75.00;;;;;;5074383;28;20049;-60
2022/05/02 12:42:15;;;;;;;7.95;5.07;;;19.40;74.50;;;;;;5074320;28;20052;-61
2022/05/02 12:44:52;;;;;;;6.40;4.80;;;19.40;73.90;;;;;;5073731;28;20037;-60
2022/05/02 12:47:23;;;;;;;9.60;4.97;;;19.10;73.40;;;;;;5074450;28;20127;-60
2022/05/02 12:50:02;;;;;;;8.43;5.32;;;19.10;74.40;;;;;;5071331;28;20387;-60
2022/05/02 12:52:29;;;;;;;7.03;5.03;;;19.00;74.60;;;;;;5074065;28;20064;-61
2022/05/02 12:54:56;;;;;;;9.45;5.00;;;18.80;75.30;;;;;;5073713;28;20048;-58
2022/05/02 13:00:40;;;;;;;7.78;5.20;;;18.60;75.90;;;;;;5073636;28;20557;-59
2022/05/02 13:03:17;;;;;;;6.75;5.50;;;18.70;75.70;;;;;;5074105;28;20036;-61
2022/05/02 13:05:46;;;;;;;8.13;5.50;;;18.70;76.90;;;;;;5073582;28;20455;-59
2022/05/02 13:08:19;;;;;;;7.97;5.22;;;18.70;77.80;;;;;;5074036;28;20041;-58
2022/05/02 13:10:50;;;;;;;8.65;5.30;;;18.70;78.60;;;;;;5072668;28;20106;-59
2022/05/02 13:13:19;;;;;;;8.52;4.72;;;18.70;77.20;;;;;;5056061;28;20351;-61
2022/05/02 13:15:50;;;;;;;9.55;5.97;;;18.60;77.40;;;;;;5072091;28;20551;-58
2022/05/02 13:18:20;;;;;;;7.47;5.70;;;18.70;78.20;;;;;;5073872;28;20048;-59
2022/05/02 13:21:11;;;;;;;8.85;5.07;;;18.50;77.80;;;;;;5072166;28;20052;-60
2022/05/02 13:23:42;;;;;;;7.63;5.57;;;18.60;78.40;;;;;;5073699;28;20098;-60
2022/05/02 13:26:33;;;;;;;8.32;5.00;;;18.70;78.10;;;;;;5073636;28;20049;-59
2022/05/02 13:29:20;;;;;;;7.07;5.10;;;18.60;77.60;;;;;;5073120;28;20398;-59
2022/05/02 13:32:02;;;;;;;8.68;4.90;;;18.40;77.80;;;;;;5073260;28;20044;-61
2022/05/02 13:34:34;;;;;;;7.25;5.07;;;18.20;77.50;;;;;;5073392;28;20052;-58
2022/05/02 13:37:14;;;;;;;5.93;5.05;;;18.10;79.00;;;;;;5073155;28;20040;-58
2022/05/02 13:39:56;;;;;;;7.32;4.80;;;18.00;79.20;;;;;;5073087;28;20052;-61
2022/05/02 13:42:42;;;;;;;6.18;4.82;;;18.00;79.40;;;;;;5071998;28;20040;-59
2022/05/02 13:45:28;;;;;;;7.70;5.40;;;18.10;80.00;;;;;;5071807;28;20140;-59
2022/05/02 13:48:25;;;;;;;8.02;5.18;;;18.10;79.80;;;;;;5072754;28;20246;-59
2022/05/02 13:51:09;;;;;;;8.88;5.18;;;18.20;80.30;;;;;;5072487;28;20501;-59